createdAt,value
2024-01-04T00:01:14.155Z,100128.83
2024-01-04T00:03:41.183Z,100133.77
2024-01-04T00:06:07.596Z,100139.71
2024-01-04T00:08:34.240Z,100143.23
2024-01-04T00:11:05.031Z,100141.33
2024-01-04T00:13:31.056Z,100136.86
2024-01-04T00:15:57.424Z,100133.67
2024-01-04T00:18:23.734Z,100139.00
2024-01-04T00:20:50.172Z,100142.23
2024-01-04T00:23:17.193Z,100149.23
2024-01-04T00:25:43.315Z,100150.83
2024-01-04T00:28:09.444Z,100152.00
2024-01-04T00:30:35.767Z,100151.09
2024-01-04T00:33:01.914Z,100151.62
2024-01-04T00:35:28.482Z,100153.94
2024-01-04T00:37:54.531Z,100150.79
2024-01-04T00:40:21.454Z,100155.38
2024-01-04T00:42:47.484Z,100156.92
2024-01-04T00:45:13.684Z,100167.08
2024-01-04T00:47:40.015Z,100161.58
2024-01-04T00:50:06.965Z,100156.38
2024-01-04T00:52:33.006Z,100156.30
2024-01-04T00:54:58.987Z,100150.90
2024-01-04T00:57:25.111Z,100149.18
2024-01-04T00:59:51.225Z,100148.30
2024-01-04T01:02:17.597Z,100143.90
2024-01-04T01:04:44.344Z,100141.87
2024-01-04T01:07:10.341Z,100144.73
2024-01-04T01:09:36.577Z,100141.14
2024-01-04T01:12:03.109Z,100137.41
2024-01-04T01:14:29.161Z,100145.09
2024-01-04T01:16:55.736Z,100157.50
2024-01-04T01:19:21.912Z,100159.94
2024-01-04T01:21:48.040Z,100161.22
2024-01-04T01:24:14.142Z,100163.48
2024-01-04T01:26:41.125Z,100167.55
2024-01-04T01:29:07.850Z,100166.10
2024-01-04T01:31:39.621Z,100165.19
2024-01-04T01:34:06.710Z,100156.25
2024-01-04T01:36:33.067Z,100157.21
2024-01-04T01:38:59.149Z,100150.41
2024-01-04T01:41:25.301Z,100137.88
2024-01-04T01:43:51.289Z,100127.77
2024-01-04T01:46:18.257Z,100126.90
2024-01-04T01:48:45.373Z,100142.23
2024-01-04T01:51:11.977Z,100142.83
2024-01-04T01:53:39.036Z,100150.52
2024-01-04T01:56:05.453Z,100157.59
2024-01-04T01:58:31.681Z,100150.05
2024-01-04T02:00:58.148Z,100159.44
2024-01-04T02:03:24.313Z,100162.90
2024-01-04T02:05:50.549Z,100169.02
2024-01-04T02:08:16.747Z,100180.84
2024-01-04T02:10:42.938Z,100192.80
2024-01-04T02:13:10.901Z,100198.70
2024-01-04T02:15:37.420Z,100196.98
2024-01-04T02:18:04.163Z,100196.30
2024-01-04T02:20:30.313Z,100195.67
2024-01-04T02:22:56.531Z,100205.48
2024-01-04T02:25:22.570Z,100212.04
2024-01-04T02:27:48.726Z,100213.75
2024-01-04T02:30:14.910Z,100209.85
2024-01-04T02:32:41.759Z,100205.77
2024-01-04T02:35:08.698Z,100206.69
2024-01-04T02:37:34.740Z,100201.11
2024-01-04T02:40:00.876Z,100198.80
2024-01-04T02:42:26.907Z,100196.81
2024-01-04T02:44:53.149Z,100190.43
2024-01-04T02:47:19.539Z,100196.11
2024-01-04T02:49:45.570Z,100193.89
2024-01-04T02:52:11.874Z,100199.65
2024-01-04T02:54:39.343Z,100208.38
2024-01-04T02:57:05.686Z,100210.84
2024-01-04T02:59:31.971Z,100209.28
2024-01-04T03:01:58.117Z,100217.39
2024-01-04T03:04:24.091Z,100215.21
2024-01-04T03:06:51.226Z,100207.36
2024-01-04T03:09:17.332Z,100213.68
2024-01-04T03:11:43.728Z,100221.61
2024-01-04T03:14:09.828Z,100214.73
2024-01-04T03:16:36.004Z,100211.95
2024-01-04T03:19:02.487Z,100205.91
2024-01-04T03:21:28.623Z,100204.50
2024-01-04T03:23:54.647Z,100204.27
2024-01-04T03:26:20.751Z,100206.39
2024-01-04T03:28:46.743Z,100195.90
2024-01-04T03:31:14.447Z,100184.77
2024-01-04T03:33:40.889Z,100179.63
2024-01-04T03:36:08.300Z,100179.94
2024-01-04T03:38:34.914Z,100189.92
2024-01-04T03:41:03.756Z,100186.61
2024-01-04T03:43:29.853Z,100181.27
2024-01-04T03:45:56.030Z,100177.37
2024-01-04T03:48:22.163Z,100191.23
2024-01-04T03:50:48.630Z,100195.35
2024-01-04T03:53:14.906Z,100198.56
2024-01-04T03:55:41.090Z,100196.02
2024-01-04T03:58:07.123Z,100202.52
2024-01-04T04:00:33.599Z,100201.16
2024-01-04T04:02:59.840Z,100202.88
2024-01-04T04:05:25.967Z,100208.30
2024-01-04T04:07:52.062Z,100204.03
2024-01-04T04:10:18.134Z,100205.27
2024-01-04T04:12:44.391Z,100195.02
2024-01-04T04:15:10.800Z,100194.58
2024-01-04T04:17:37.403Z,100201.85
2024-01-04T04:20:04.450Z,100203.11
2024-01-04T04:22:30.573Z,100201.63
2024-01-04T04:24:56.777Z,100203.70
2024-01-04T04:27:22.908Z,100201.10
2024-01-04T04:29:49.415Z,100195.91
2024-01-04T04:32:15.861Z,100195.08
2024-01-04T04:34:42.663Z,100200.33
2024-01-04T04:37:08.946Z,100208.92
2024-01-04T04:39:35.054Z,100203.41
2024-01-04T04:42:01.404Z,100196.06
2024-01-04T04:44:27.622Z,100195.81
2024-01-04T04:46:54.026Z,100188.34
2024-01-04T04:49:20.420Z,100193.63
2024-01-04T04:51:49.480Z,100201.77
2024-01-04T04:54:18.921Z,100211.61
2024-01-04T04:56:45.430Z,100214.83
2024-01-04T04:59:12.886Z,100217.06
2024-01-04T05:01:43.833Z,100212.00
2024-01-04T05:04:10.064Z,100210.94
2024-01-04T05:06:36.381Z,100217.02
2024-01-04T05:09:02.777Z,100221.55
2024-01-04T05:11:28.859Z,100219.46
2024-01-04T05:13:55.023Z,100222.38
2024-01-04T05:16:21.236Z,100225.77
2024-01-04T05:18:47.499Z,100215.71
2024-01-04T05:21:13.700Z,100218.69
2024-01-04T05:23:39.926Z,100227.94
2024-01-04T05:26:07.036Z,100236.68
2024-01-04T05:28:33.012Z,100237.44
2024-01-04T05:30:59.407Z,100234.68
2024-01-04T05:33:25.793Z,100233.05
2024-01-04T05:35:52.941Z,100229.11
2024-01-04T05:38:18.951Z,100236.91
2024-01-04T05:40:44.966Z,100239.70
2024-01-04T05:43:11.128Z,100249.64
2024-01-04T05:45:37.383Z,100247.90
2024-01-04T05:48:03.779Z,100252.30
2024-01-04T05:50:29.968Z,100250.19
2024-01-04T05:52:55.984Z,100255.75
2024-01-04T05:55:22.002Z,100262.73
2024-01-04T05:57:48.105Z,100263.65
2024-01-04T06:00:17.885Z,100266.54
2024-01-04T06:02:44.838Z,100267.07
2024-01-04T06:05:11.067Z,100270.52
2024-01-04T06:07:37.155Z,100271.08
2024-01-04T06:10:03.514Z,100273.10
2024-01-04T06:12:29.528Z,100271.36
2024-01-04T06:14:55.539Z,100258.00
2024-01-04T06:17:21.665Z,100253.80
2024-01-04T06:19:47.761Z,100253.07
2024-01-04T06:22:14.339Z,100264.30
2024-01-04T06:24:40.376Z,100270.61
2024-01-04T06:27:06.551Z,100265.77
2024-01-04T06:29:32.664Z,100267.05
2024-01-04T06:31:58.788Z,100269.68
2024-01-04T06:34:24.917Z,100265.13
2024-01-04T06:36:51.044Z,100272.14
2024-01-04T06:39:17.541Z,100269.52
2024-01-04T06:41:45.436Z,100285.14
2024-01-04T06:44:11.718Z,100293.23
2024-01-04T06:46:38.131Z,100292.75
2024-01-04T06:49:04.452Z,100289.13
2024-01-04T06:51:30.581Z,100292.56
2024-01-04T06:53:59.771Z,100299.00
2024-01-04T06:56:26.869Z,100301.73
2024-01-04T06:58:53.065Z,100304.80
2024-01-04T07:01:20.370Z,100314.27
2024-01-04T07:03:47.275Z,100314.88
2024-01-04T07:06:14.053Z,100317.98
2024-01-04T07:08:40.210Z,100330.91
2024-01-04T07:11:06.314Z,100327.41
2024-01-04T07:13:35.487Z,100326.66
2024-01-04T07:16:05.316Z,100324.16
2024-01-04T07:18:31.455Z,100325.17
2024-01-04T07:20:57.643Z,100320.87
2024-01-04T07:23:23.778Z,100311.88
2024-01-04T07:25:49.857Z,100318.19
2024-01-04T07:28:16.997Z,100318.91
2024-01-04T07:30:43.075Z,100323.72
2024-01-04T07:33:09.401Z,100334.76
2024-01-04T07:35:35.640Z,100330.14
2024-01-04T07:38:01.803Z,100326.77
2024-01-04T07:40:27.787Z,100334.00
2024-01-04T07:42:53.743Z,100325.65
2024-01-04T07:45:19.862Z,100323.21
2024-01-04T07:47:46.063Z,100314.09
2024-01-04T07:50:12.604Z,100304.41
2024-01-04T07:52:39.459Z,100310.38
2024-01-04T07:55:07.669Z,100311.77
2024-01-04T07:57:34.254Z,100309.60
2024-01-04T08:00:00.415Z,100298.34
2024-01-04T08:02:29.219Z,100298.25
2024-01-04T08:04:55.288Z,100291.86
2024-01-04T08:07:21.505Z,100279.28
2024-01-04T08:09:47.556Z,100268.90
2024-01-04T08:12:13.844Z,100272.99
2024-01-04T08:14:40.120Z,100281.23
2024-01-04T08:17:06.356Z,100282.69
2024-01-04T08:19:32.633Z,100284.14
2024-01-04T08:21:58.814Z,100288.85
2024-01-04T08:24:25.051Z,100292.20
2024-01-04T08:26:51.356Z,100293.78
2024-01-04T08:29:18.627Z,100303.71
2024-01-04T08:31:44.700Z,100296.42
2024-01-04T08:34:11.094Z,100300.47
2024-01-04T08:36:37.738Z,100296.98
2024-01-04T08:39:06.828Z,100311.95
2024-01-04T08:41:32.917Z,100327.03
2024-01-04T08:43:59.100Z,100325.14
2024-01-04T08:46:25.137Z,100331.80
2024-01-04T08:48:51.383Z,100334.98
2024-01-04T08:51:17.670Z,100332.98
2024-01-04T08:53:43.893Z,100329.56
2024-01-04T08:56:10.187Z,100330.31
2024-01-04T08:58:37.032Z,100323.40
2024-01-04T09:01:03.356Z,100322.80
2024-01-04T09:03:29.657Z,100321.45
2024-01-04T09:05:56.166Z,100324.46
2024-01-04T09:08:22.280Z,100324.02
2024-01-04T09:10:48.433Z,100328.05
2024-01-04T09:13:14.544Z,100326.31
2024-01-04T09:15:40.598Z,100313.64
2024-01-04T09:18:06.855Z,100314.79
2024-01-04T09:20:33.128Z,100327.02
2024-01-04T09:22:59.266Z,100327.64
2024-01-04T09:25:28.224Z,100328.73
2024-01-04T09:27:55.468Z,100321.07
2024-01-04T09:30:21.865Z,100316.71
2024-01-04T09:32:47.984Z,100311.98
2024-01-04T09:35:19.795Z,100312.30
2024-01-04T09:37:45.892Z,100308.70
2024-01-04T09:40:12.676Z,100298.84
2024-01-04T09:42:41.487Z,100290.52
2024-01-04T09:45:11.941Z,100284.36
2024-01-04T09:47:41.875Z,100283.06
2024-01-04T09:50:12.201Z,100286.40
2024-01-04T09:52:47.500Z,100290.91
2024-01-04T09:55:13.696Z,100293.66
2024-01-04T09:57:40.070Z,100292.99
2024-01-04T10:00:09.295Z,100300.25
2024-01-04T10:02:45.439Z,100307.48
2024-01-04T10:05:17.472Z,100316.09
2024-01-04T10:07:52.681Z,100362.04
2024-01-04T10:10:21.490Z,100370.23
2024-01-04T10:12:49.209Z,100395.25
2024-01-04T10:15:16.051Z,100390.60
2024-01-04T10:17:46.391Z,100383.88
2024-01-04T10:20:12.625Z,100416.55
2024-01-04T10:22:41.161Z,100400.60
2024-01-04T10:25:12.040Z,100406.39
2024-01-04T10:27:40.174Z,100404.80
2024-01-04T10:30:07.936Z,100387.55
2024-01-04T10:32:34.856Z,100395.77
2024-01-04T10:35:07.364Z,100394.83
2024-01-04T10:37:34.452Z,100408.75
2024-01-04T10:40:10.210Z,100401.77
2024-01-04T10:42:36.287Z,100400.91
2024-01-04T10:45:02.441Z,100408.79
2024-01-04T10:47:29.940Z,100407.92
2024-01-04T10:50:00.465Z,100408.13
2024-01-04T10:52:32.862Z,100411.52
2024-01-04T10:55:00.476Z,100404.27
2024-01-04T10:57:29.027Z,100396.55
2024-01-04T10:59:56.476Z,100396.27
2024-01-04T11:02:23.597Z,100390.73
2024-01-04T11:04:49.792Z,100384.33
2024-01-04T11:07:16.724Z,100386.21
2024-01-04T11:09:43.737Z,100381.41
2024-01-04T11:12:11.179Z,100386.86
2024-01-04T11:14:37.349Z,100386.67
2024-01-04T11:17:06.453Z,100388.59
2024-01-04T11:19:55.066Z,100388.08
2024-01-04T11:22:34.363Z,100372.15
2024-01-04T11:25:42.271Z,100368.30
2024-01-04T11:28:11.502Z,100359.73
2024-01-04T11:30:38.297Z,100354.25
2024-01-04T11:33:05.009Z,100354.20
2024-01-04T11:35:36.503Z,100349.48
2024-01-04T11:38:09.927Z,100349.32
2024-01-04T11:40:38.035Z,100336.95
2024-01-04T11:43:14.759Z,100332.91
2024-01-04T11:45:45.270Z,100329.34
2024-01-04T11:48:12.566Z,100324.22
2024-01-04T11:50:52.198Z,100315.16
2024-01-04T11:53:19.027Z,100308.27
2024-01-04T11:55:46.327Z,100314.88
2024-01-04T11:58:13.957Z,100318.26
2024-01-04T12:00:48.242Z,100320.27
2024-01-04T12:03:20.735Z,100320.95
2024-01-04T12:05:50.756Z,100319.08
2024-01-04T12:08:26.371Z,100320.70
2024-01-04T12:10:56.335Z,100319.39
2024-01-04T12:13:23.439Z,100319.63
2024-01-04T12:15:52.200Z,100320.42
2024-01-04T12:18:21.151Z,100314.71
2024-01-04T12:20:48.679Z,100312.27
2024-01-04T12:23:15.830Z,100312.59
2024-01-04T12:25:42.462Z,100312.10
2024-01-04T12:28:09.438Z,100315.52
2024-01-04T12:30:39.223Z,100316.29
2024-01-04T12:33:07.145Z,100308.21
2024-01-04T12:35:33.226Z,100310.24
2024-01-04T12:38:05.828Z,100303.09
2024-01-04T12:40:42.037Z,100296.73
2024-01-04T12:43:13.471Z,100290.63
2024-01-04T12:45:40.035Z,100293.39
2024-01-04T12:48:07.764Z,100293.70
2024-01-04T12:50:36.164Z,100287.16
2024-01-04T12:53:02.641Z,100285.42
2024-01-04T12:55:29.203Z,100282.20
2024-01-04T12:57:55.677Z,100276.64
2024-01-04T13:00:22.430Z,100266.98
2024-01-04T13:02:48.749Z,100268.02
2024-01-04T13:05:15.014Z,100254.80
2024-01-04T13:07:41.079Z,100250.40
2024-01-04T13:10:11.206Z,100246.52
2024-01-04T13:12:38.058Z,100249.81
2024-01-04T13:15:05.369Z,100247.58
2024-01-04T13:17:31.718Z,100244.93
2024-01-04T13:19:58.871Z,100244.19
2024-01-04T13:22:26.714Z,100242.98
2024-01-04T13:24:53.419Z,100248.38
2024-01-04T13:27:19.800Z,100245.84
2024-01-04T13:29:47.593Z,100242.31
2024-01-04T13:32:14.780Z,100240.58
2024-01-04T13:34:40.991Z,100231.84
2024-01-04T13:37:07.125Z,100233.52
2024-01-04T13:39:33.488Z,100238.09
2024-01-04T13:41:59.630Z,100242.72
2024-01-04T13:44:25.751Z,100241.56
2024-01-04T13:46:51.813Z,100240.52
2024-01-04T13:49:18.952Z,100242.84
2024-01-04T13:51:45.125Z,100243.52
2024-01-04T13:54:12.494Z,100246.38
2024-01-04T13:56:38.988Z,100247.06
2024-01-04T13:59:05.905Z,100248.04
2024-01-04T14:01:31.946Z,100248.71
2024-01-04T14:03:58.144Z,100248.37
2024-01-04T14:06:24.894Z,100250.52
2024-01-04T14:08:55.329Z,100251.18
2024-01-04T14:11:22.083Z,100252.38
2024-01-04T14:13:48.648Z,100251.07
2024-01-04T14:16:14.749Z,100252.79
2024-01-04T14:18:40.766Z,100253.95
2024-01-04T14:21:09.456Z,100250.75
2024-01-04T14:23:35.703Z,100253.38
2024-01-04T14:26:02.561Z,100246.85
2024-01-04T14:28:28.687Z,100247.34
2024-01-04T14:30:54.847Z,100246.27
2024-01-04T14:33:28.952Z,100248.33
2024-01-04T14:36:03.032Z,100248.63
2024-01-04T14:38:29.285Z,100249.44
2024-01-04T14:40:55.382Z,100239.64
2024-01-04T14:43:22.162Z,100241.14
2024-01-04T14:45:48.162Z,100241.93
2024-01-04T14:48:14.388Z,100236.45
2024-01-04T14:50:41.479Z,100230.08
2024-01-04T14:53:07.453Z,100231.89
2024-01-04T14:55:33.615Z,100235.77
2024-01-04T14:58:00.370Z,100237.94
2024-01-04T15:00:26.515Z,100249.48
2024-01-04T15:02:52.758Z,100251.23
2024-01-04T15:05:18.981Z,100254.46
2024-01-04T15:07:45.048Z,100253.71
2024-01-04T15:10:11.232Z,100252.09
2024-01-04T15:12:40.238Z,100253.64
2024-01-04T15:15:11.166Z,100257.20
2024-01-04T15:17:42.550Z,100262.79
2024-01-04T15:20:10.870Z,100266.42
2024-01-04T15:22:38.037Z,100267.89
2024-01-04T15:25:04.496Z,100267.04
2024-01-04T15:27:30.527Z,100272.38
2024-01-04T15:29:56.583Z,100274.36
2024-01-04T15:32:22.972Z,100272.81
2024-01-04T15:34:49.035Z,100273.17
2024-01-04T15:37:15.389Z,100273.55
2024-01-04T15:39:41.471Z,100281.48
2024-01-04T15:42:07.680Z,100279.81
2024-01-04T15:44:33.923Z,100284.27
2024-01-04T15:47:00.240Z,100290.61
2024-01-04T15:49:26.438Z,100299.41
2024-01-04T15:51:52.674Z,100312.21
2024-01-04T15:54:18.961Z,100316.17
2024-01-04T15:56:45.096Z,100324.73
2024-01-04T15:59:11.638Z,100324.98
2024-01-04T16:01:39.878Z,100333.13
2024-01-04T16:04:07.826Z,100338.34
2024-01-04T16:06:35.391Z,100341.50
2024-01-04T16:09:02.162Z,100343.89
2024-01-04T16:11:28.479Z,100349.48
2024-01-04T16:13:54.486Z,100346.64
2024-01-04T16:16:20.713Z,100356.30
2024-01-04T16:18:47.076Z,100362.02
2024-01-04T16:21:13.426Z,100373.77
2024-01-04T16:23:40.132Z,100380.86
2024-01-04T16:26:07.969Z,100385.69
2024-01-04T16:28:34.605Z,100389.92
2024-01-04T16:31:00.666Z,100390.23
2024-01-04T16:33:27.518Z,100392.42
2024-01-04T16:35:53.839Z,100392.70
2024-01-04T16:38:20.170Z,100393.60
2024-01-04T16:40:46.743Z,100396.81
2024-01-04T16:43:13.038Z,100411.42
2024-01-04T16:45:39.367Z,100408.66
2024-01-04T16:48:07.729Z,100412.23
2024-01-04T16:50:34.532Z,100410.48
2024-01-04T16:53:00.751Z,100415.13
2024-01-04T16:55:26.906Z,100420.90
2024-01-04T16:57:53.082Z,100420.89
2024-01-04T17:00:19.315Z,100423.48
2024-01-04T17:02:45.496Z,100426.73
2024-01-04T17:05:11.636Z,100424.23
2024-01-04T17:07:37.902Z,100418.77
2024-01-04T17:10:04.411Z,100418.34
2024-01-04T17:12:30.615Z,100422.71
2024-01-04T17:14:57.448Z,100422.30
2024-01-04T17:17:23.425Z,100416.55
2024-01-04T17:19:49.439Z,100415.16
2024-01-04T17:22:15.520Z,100414.27
2024-01-04T17:24:41.648Z,100422.11
2024-01-04T17:27:08.027Z,100426.86
2024-01-04T17:29:34.087Z,100429.58
2024-01-04T17:32:00.054Z,100430.63
2024-01-04T17:34:26.242Z,100428.84
2024-01-04T17:36:52.349Z,100424.49
2024-01-04T17:39:18.463Z,100428.66
2024-01-04T17:41:47.394Z,100444.91
2024-01-04T17:44:15.846Z,100451.54
2024-01-04T17:46:41.924Z,100452.83
2024-01-04T17:49:08.151Z,100442.13
2024-01-04T17:51:34.527Z,100443.98
2024-01-04T17:54:01.215Z,100447.84
2024-01-04T17:56:27.335Z,100452.39
2024-01-04T17:58:53.381Z,100446.38
2024-01-04T18:01:19.637Z,100445.63
2024-01-04T18:03:46.436Z,100456.15
2024-01-04T18:06:12.589Z,100464.20
2024-01-04T18:08:38.824Z,100461.31
2024-01-04T18:11:04.885Z,100462.18
2024-01-04T18:13:35.491Z,100468.84
2024-01-04T18:16:01.920Z,100478.23
2024-01-04T18:18:28.131Z,100478.12
2024-01-04T18:20:54.338Z,100479.69
2024-01-04T18:23:20.469Z,100486.83
2024-01-04T18:25:46.605Z,100490.99
2024-01-04T18:28:14.561Z,100500.55
2024-01-04T18:30:41.401Z,100506.07
2024-01-04T18:33:08.322Z,100504.00
2024-01-04T18:35:34.495Z,100505.14
2024-01-04T18:38:01.739Z,100500.38
2024-01-04T18:40:28.349Z,100491.18
2024-01-04T18:42:54.282Z,100501.80
2024-01-04T18:45:20.985Z,100504.30
2024-01-04T18:47:47.104Z,100499.39
2024-01-04T18:50:13.812Z,100506.81
2024-01-04T18:52:41.285Z,100515.66
2024-01-04T18:55:12.292Z,100515.89
2024-01-04T18:57:38.376Z,100521.17
2024-01-04T19:00:06.072Z,100519.85
2024-01-04T19:02:32.202Z,100523.05
2024-01-04T19:04:58.456Z,100523.94
2024-01-04T19:07:24.498Z,100518.46
2024-01-04T19:09:50.583Z,100514.69
2024-01-04T19:12:16.810Z,100519.48
2024-01-04T19:14:42.956Z,100510.05
2024-01-04T19:17:09.319Z,100514.33
2024-01-04T19:19:35.862Z,100512.35
2024-01-04T19:22:02.150Z,100505.20
2024-01-04T19:24:28.479Z,100498.72
2024-01-04T19:26:54.554Z,100499.17
2024-01-04T19:29:20.801Z,100499.48
2024-01-04T19:31:46.919Z,100501.41
2024-01-04T19:34:13.112Z,100497.73
2024-01-04T19:36:39.507Z,100495.66
2024-01-04T19:39:05.811Z,100496.42
2024-01-04T19:41:32.033Z,100500.36
2024-01-04T19:43:58.153Z,100497.27
2024-01-04T19:46:24.756Z,100491.73
2024-01-04T19:48:52.088Z,100484.20
2024-01-04T19:51:19.494Z,100487.56
2024-01-04T19:53:45.588Z,100495.39
2024-01-04T19:56:11.628Z,100491.20
2024-01-04T19:58:37.801Z,100479.27
2024-01-04T20:01:04.238Z,100483.76
2024-01-04T20:03:30.586Z,100496.23
2024-01-04T20:05:57.029Z,100496.39
2024-01-04T20:08:23.172Z,100503.26
2024-01-04T20:10:49.344Z,100510.08
2024-01-04T20:13:15.704Z,100521.01
2024-01-04T20:15:42.472Z,100521.84
2024-01-04T20:18:08.896Z,100527.95
2024-01-04T20:20:35.196Z,100539.58
2024-01-04T20:23:01.285Z,100538.83
2024-01-04T20:25:28.188Z,100548.07
2024-01-04T20:27:54.701Z,100553.54
2024-01-04T20:30:20.759Z,100560.70
2024-01-04T20:32:46.976Z,100571.24
2024-01-04T20:35:13.107Z,100579.98
2024-01-04T20:37:39.154Z,100582.99
2024-01-04T20:40:06.098Z,100590.36
2024-01-04T20:42:32.373Z,100594.00
2024-01-04T20:44:58.775Z,100607.42
2024-01-04T20:47:24.888Z,100610.34
2024-01-04T20:49:52.068Z,100607.27
2024-01-04T20:52:19.007Z,100604.80
2024-01-04T20:54:45.171Z,100612.90
2024-01-04T20:57:11.363Z,100613.02
2024-01-04T20:59:37.967Z,100613.63
2024-01-04T21:02:04.038Z,100608.48
2024-01-04T21:04:30.107Z,100610.79
2024-01-04T21:06:56.161Z,100614.95
2024-01-04T21:09:22.404Z,100612.32
2024-01-04T21:11:51.911Z,100609.78
2024-01-04T21:14:19.378Z,100607.21
2024-01-04T21:16:46.030Z,100610.55
2024-01-04T21:19:12.494Z,100609.23
2024-01-04T21:21:38.775Z,100608.21
2024-01-04T21:24:05.534Z,100603.27
2024-01-04T21:26:31.665Z,100593.87
2024-01-04T21:28:59.203Z,100593.34
2024-01-04T21:31:25.661Z,100598.49
2024-01-04T21:33:52.131Z,100598.55
2024-01-04T21:36:18.824Z,100608.71
2024-01-04T21:38:45.103Z,100607.26
2024-01-04T21:41:11.217Z,100607.40
2024-01-04T21:43:37.257Z,100605.56
2024-01-04T21:46:04.514Z,100604.89
2024-01-04T21:48:30.789Z,100608.84
2024-01-04T21:50:57.402Z,100606.17
2024-01-04T21:53:23.438Z,100609.86
2024-01-04T21:55:49.542Z,100609.65
2024-01-04T21:58:15.586Z,100606.05
2024-01-04T22:00:42.106Z,100611.27
2024-01-04T22:03:09.465Z,100613.90
2024-01-04T22:05:35.676Z,100611.52
2024-01-04T22:08:01.926Z,100613.66
2024-01-04T22:10:28.984Z,100610.72
2024-01-04T22:12:55.519Z,100614.23
2024-01-04T22:15:21.807Z,100611.91
2024-01-04T22:17:48.060Z,100612.38
2024-01-04T22:20:14.511Z,100615.84
2024-01-04T22:22:40.733Z,100615.46
2024-01-04T22:25:07.483Z,100618.54
2024-01-04T22:27:33.636Z,100623.38
2024-01-04T22:29:59.759Z,100627.77
2024-01-04T22:32:25.931Z,100628.20
2024-01-04T22:34:52.067Z,100627.54
2024-01-04T22:37:18.214Z,100630.34
2024-01-04T22:39:44.520Z,100636.79
2024-01-04T22:42:10.605Z,100643.74
2024-01-04T22:44:36.872Z,100656.49
2024-01-04T22:47:06.396Z,100658.67
2024-01-04T22:49:32.532Z,100663.27
2024-01-04T22:51:58.937Z,100663.34
2024-01-04T22:54:24.990Z,100655.50
2024-01-04T22:56:51.187Z,100657.36
2024-01-04T22:59:17.878Z,100656.61
2024-01-04T23:01:43.836Z,100654.91
2024-01-04T23:04:10.032Z,100653.67
2024-01-04T23:06:36.208Z,100651.52
2024-01-04T23:09:02.266Z,100648.76
2024-01-04T23:11:28.301Z,100651.52
2024-01-04T23:13:54.357Z,100649.34
2024-01-04T23:16:20.626Z,100647.14
2024-01-04T23:18:46.673Z,100647.75
2024-01-04T23:21:12.843Z,100643.80
2024-01-04T23:23:39.098Z,100635.69
2024-01-04T23:26:05.255Z,100634.77
2024-01-04T23:28:31.313Z,100632.40
2024-01-04T23:30:57.501Z,100632.74
2024-01-04T23:33:33.454Z,100633.56
2024-01-04T23:36:06.954Z,100629.35
2024-01-04T23:38:33.268Z,100624.80
2024-01-04T23:41:00.000Z,100624.34
2024-01-04T23:43:26.014Z,100627.09
2024-01-04T23:45:52.865Z,100625.44
2024-01-04T23:48:19.173Z,100616.08
2024-01-04T23:50:45.315Z,100605.34
2024-01-04T23:53:11.558Z,100597.20
2024-01-04T23:55:37.579Z,100592.92
2024-01-04T23:58:03.687Z,100588.48
